Time,TemperatureF,DewpointF,PressureIn,WindDirection,WindDirectionDegrees,WindSpeedMPH,WindSpeedGustMPH,Humidity,HourlyPrecipIn,Conditions,Clouds,dailyrainin,SolarRadiationWatts/m^2,SoftwareType,DateUTC
2013-04-10 00:02:00,51.0,34.0,-100.00,SW,234,4.0,7.0,52,0.00,,,0.01,0.000000,,2013-04-10 07:02:00,
2013-04-10 00:12:00,51.0,34.0,-100.00,SW,234,4.0,7.0,52,0.00,,,0.01,0.000000,,2013-04-10 07:12:00,
2013-04-10 00:22:00,51.0,34.0,-100.00,SW,234,4.0,7.0,52,0.00,,,0.01,0.000000,,2013-04-10 07:22:00,
2013-04-10 00:52:00,52.0,35.0,-100.00,SW,231,7.0,10.0,52,0.00,,,0.01,0.000000,,2013-04-10 07:52:00,
2013-04-10 01:02:00,52.0,35.0,-100.00,SW,231,7.0,10.0,52,0.00,,,0.01,0.000000,,2013-04-10 08:02:00,
2013-04-10 01:12:00,52.0,35.0,-100.00,SW,231,7.0,10.0,52,0.00,,,0.01,0.000000,,2013-04-10 08:12:00,
2013-04-10 01:22:00,52.0,35.0,-100.00,SW,231,7.0,10.0,52,0.00,,,0.01,0.000000,,2013-04-10 08:22:00,
2013-04-10 01:52:00,52.0,35.0,-100.00,WSW,244,9.0,13.0,52,0.00,,,0.01,0.000000,,2013-04-10 08:52:00,
2013-04-10 02:02:00,52.0,35.0,-100.00,WSW,244,9.0,13.0,52,0.00,,,0.01,0.000000,,2013-04-10 09:02:00,
2013-04-10 02:12:00,52.0,35.0,-100.00,WSW,244,9.0,13.0,52,0.00,,,0.01,0.000000,,2013-04-10 09:12:00,
2013-04-10 02:22:00,52.0,35.0,-100.00,WSW,244,9.0,13.0,52,0.00,,,0.01,0.000000,,2013-04-10 09:22:00,
2013-04-10 02:53:00,48.0,34.0,-100.00,SW,228,5.0,15.0,57,0.00,,,0.01,0.000000,,2013-04-10 09:53:00,
2013-04-10 03:02:00,48.0,34.0,-100.00,SW,228,5.0,15.0,57,0.00,,,0.01,0.000000,,2013-04-10 10:02:00,
2013-04-10 03:12:00,48.0,34.0,-100.00,SW,228,5.0,15.0,57,0.00,,,0.01,0.000000,,2013-04-10 10:12:00,
2013-04-10 03:23:00,48.0,34.0,-100.00,SW,228,5.0,15.0,57,0.00,,,0.01,0.000000,,2013-04-10 10:23:00,
2013-04-10 03:52:00,49.0,35.0,-100.00,WSW,247,3.0,9.0,59,0.00,,,0.01,0.000000,,2013-04-10 10:52:00,
2013-04-10 04:02:00,49.0,35.0,-100.00,WSW,247,3.0,9.0,59,0.00,,,0.01,0.000000,,2013-04-10 11:02:00,
2013-04-10 04:12:00,49.0,35.0,-100.00,WSW,247,3.0,9.0,59,0.00,,,0.01,0.000000,,2013-04-10 11:12:00,
2013-04-10 04:22:00,49.0,35.0,-100.00,WSW,247,3.0,9.0,59,0.00,,,0.01,0.000000,,2013-04-10 11:22:00,
2013-04-10 06:53:00,44.0,39.0,-100.00,WSW,241,0.0,6.0,84,-99.99,,,0.00,0.000000,,2013-04-10 13:53:00,
2013-04-10 07:02:00,44.0,39.0,-100.00,WSW,241,0.0,6.0,84,-99.99,,,0.00,0.000000,,2013-04-10 14:02:00,
2013-04-10 07:12:00,44.0,39.0,-100.00,WSW,241,0.0,6.0,84,-99.99,,,0.00,0.000000,,2013-04-10 14:12:00,
2013-04-10 07:21:00,44.0,39.0,-100.00,WSW,241,0.0,6.0,84,-99.99,,,0.00,0.000000,,2013-04-10 14:21:00,
2013-04-10 07:52:00,45.0,40.0,-100.00,WSW,241,4.0,6.0,84,0.00,,,0.00,16.000000,,2013-04-10 14:52:00,
2013-04-10 08:02:00,45.0,40.0,-100.00,WSW,241,4.0,6.0,84,0.00,,,0.00,16.000000,,2013-04-10 15:02:00,
2013-04-10 08:12:00,45.0,40.0,-100.00,WSW,241,4.0,6.0,84,0.00,,,0.00,16.000000,,2013-04-10 15:12:00,
2013-04-10 08:22:00,45.0,40.0,-100.00,WSW,241,4.0,6.0,84,0.00,,,0.00,16.000000,,2013-04-10 15:22:00,
2013-04-10 08:52:00,50.0,40.0,-100.00,WSW,243,4.0,8.0,69,0.00,,,0.00,97.000000,,2013-04-10 15:52:00,
2013-04-10 09:02:00,50.0,40.0,-100.00,WSW,243,4.0,8.0,69,0.00,,,0.00,97.000000,,2013-04-10 16:02:00,
2013-04-10 09:12:00,50.0,40.0,-100.00,WSW,243,4.0,8.0,69,0.00,,,0.00,97.000000,,2013-04-10 16:12:00,
2013-04-10 09:23:00,50.0,40.0,-100.00,WSW,243,4.0,8.0,69,0.00,,,0.00,97.000000,,2013-04-10 16:23:00,
2013-04-10 09:53:00,52.0,37.0,-100.00,SSW,197,3.0,14.0,57,0.00,,,0.00,369.000000,,2013-04-10 16:53:00,
2013-04-10 10:02:00,52.0,37.0,-100.00,SSW,197,3.0,14.0,57,0.00,,,0.00,369.000000,,2013-04-10 17:02:00,
2013-04-10 10:12:00,52.0,37.0,-100.00,SSW,197,3.0,14.0,57,0.00,,,0.00,369.000000,,2013-04-10 17:12:00,
2013-04-10 10:22:00,52.0,37.0,-100.00,SSW,197,3.0,14.0,57,0.00,,,0.00,369.000000,,2013-04-10 17:22:00,
2013-04-10 10:52:00,50.0,39.0,-100.00,SSW,201,6.0,12.0,67,0.00,,,0.00,203.000000,,2013-04-10 17:52:00,
2013-04-10 11:02:00,50.0,39.0,-100.00,SSW,201,6.0,12.0,67,0.00,,,0.00,203.000000,,2013-04-10 18:02:00,
2013-04-10 11:12:00,50.0,39.0,-100.00,SSW,201,6.0,12.0,67,0.00,,,0.00,203.000000,,2013-04-10 18:12:00,
2013-04-10 11:22:00,50.0,39.0,-100.00,SSW,201,6.0,12.0,67,0.00,,,0.00,203.000000,,2013-04-10 18:22:00,
2013-04-10 11:52:00,50.0,41.0,-100.00,SW,218,6.0,15.0,71,0.00,,,0.00,226.000000,,2013-04-10 18:52:00,
2013-04-10 12:02:00,50.0,41.0,-100.00,SW,218,6.0,15.0,71,0.00,,,0.00,226.000000,,2013-04-10 19:02:00,
2013-04-10 12:12:00,50.0,41.0,-100.00,SW,218,6.0,15.0,71,0.00,,,0.00,226.000000,,2013-04-10 19:12:00,
2013-04-10 12:22:00,50.0,41.0,-100.00,SW,218,6.0,15.0,71,0.00,,,0.00,226.000000,,2013-04-10 19:22:00,
2013-04-10 12:53:00,57.0,49.0,-100.00,SSW,212,6.0,10.0,74,0.02,,,0.02,444.000000,,2013-04-10 19:53:00,
2013-04-10 13:02:00,57.0,49.0,-100.00,SSW,212,6.0,10.0,74,0.02,,,0.02,444.000000,,2013-04-10 20:02:00,
2013-04-10 13:12:00,57.0,49.0,-100.00,SSW,212,6.0,10.0,74,0.02,,,0.02,444.000000,,2013-04-10 20:12:00,
2013-04-10 13:22:00,57.0,49.0,-100.00,SSW,212,6.0,10.0,74,0.02,,,0.02,444.000000,,2013-04-10 20:22:00,
2013-04-10 13:52:00,62.0,47.0,-100.00,SW,222,0.0,10.0,59,0.00,,,0.02,670.000000,,2013-04-10 20:52:00,
2013-04-10 14:02:00,62.0,47.0,-100.00,SW,222,0.0,10.0,59,0.00,,,0.02,670.000000,,2013-04-10 21:02:00,
2013-04-10 14:12:00,62.0,47.0,-100.00,SW,222,0.0,10.0,59,0.00,,,0.02,670.000000,,2013-04-10 21:12:00,
2013-04-10 14:22:00,62.0,47.0,-100.00,SW,222,0.0,10.0,59,0.00,,,0.02,670.000000,,2013-04-10 21:22:00,
2013-04-10 14:53:00,63.0,36.0,-100.00,ENE,63,5.0,26.0,37,0.00,,,0.02,835.000000,,2013-04-10 21:53:00,
2013-04-10 15:03:00,63.0,36.0,-100.00,ENE,63,5.0,26.0,37,0.00,,,0.02,835.000000,,2013-04-10 22:03:00,
2013-04-10 15:12:00,63.0,36.0,-100.00,ENE,63,5.0,26.0,37,0.00,,,0.02,835.000000,,2013-04-10 22:12:00,
2013-04-10 15:22:00,63.0,36.0,-100.00,ENE,63,5.0,26.0,37,0.00,,,0.02,835.000000,,2013-04-10 22:22:00,
2013-04-10 15:53:00,62.0,34.0,-100.00,West,276,8.0,25.0,35,0.00,,,0.02,742.000000,,2013-04-10 22:53:00,
2013-04-10 16:02:00,62.0,34.0,-100.00,West,276,8.0,25.0,35,0.00,,,0.02,742.000000,,2013-04-10 23:02:00,
2013-04-10 16:12:00,62.0,34.0,-100.00,West,276,8.0,25.0,35,0.00,,,0.02,742.000000,,2013-04-10 23:12:00,
2013-04-10 16:22:00,62.0,34.0,-100.00,West,276,8.0,25.0,35,0.00,,,0.02,742.000000,,2013-04-10 23:22:00,
2013-04-10 16:53:00,61.0,33.0,-100.00,WSW,246,10.0,26.0,35,0.00,,,0.02,413.000000,,2013-04-10 23:53:00,
2013-04-10 17:02:00,61.0,33.0,-100.00,WSW,246,10.0,26.0,35,0.00,,,0.02,413.000000,,2013-04-11 00:02:00,
2013-04-10 17:12:00,61.0,33.0,-100.00,WSW,246,10.0,26.0,35,0.00,,,0.02,413.000000,,2013-04-11 00:12:00,
2013-04-10 17:22:00,61.0,33.0,-100.00,WSW,246,10.0,26.0,35,0.00,,,0.02,413.000000,,2013-04-11 00:22:00,
2013-04-10 17:53:00,60.0,30.0,-100.00,SW,236,10.0,30.0,32,0.00,,,0.02,445.000000,,2013-04-11 00:53:00,
2013-04-10 18:02:00,60.0,30.0,-100.00,SW,236,10.0,30.0,32,0.00,,,0.02,445.000000,,2013-04-11 01:02:00,
2013-04-10 18:12:00,60.0,30.0,-100.00,SW,236,10.0,30.0,32,0.00,,,0.02,445.000000,,2013-04-11 01:12:00,
2013-04-10 18:22:00,60.0,30.0,-100.00,SW,236,10.0,30.0,32,0.00,,,0.02,445.000000,,2013-04-11 01:22:00,
2013-04-10 18:52:00,59.0,28.0,-100.00,West,261,10.0,25.0,31,0.00,,,0.02,281.000000,,2013-04-11 01:52:00,
2013-04-10 19:02:00,59.0,28.0,-100.00,West,261,10.0,25.0,31,0.00,,,0.02,281.000000,,2013-04-11 02:02:00,
2013-04-10 19:12:00,59.0,28.0,-100.00,West,261,10.0,25.0,31,0.00,,,0.02,281.000000,,2013-04-11 02:12:00,
2013-04-10 19:22:00,59.0,28.0,-100.00,West,261,10.0,25.0,31,0.00,,,0.02,281.000000,,2013-04-11 02:22:00,
2013-04-10 19:53:00,53.0,29.0,-100.00,SW,233,8.0,24.0,39,0.00,,,0.02,73.000000,,2013-04-11 02:53:00,
2013-04-10 20:02:00,53.0,29.0,-100.00,SW,233,8.0,24.0,39,0.00,,,0.02,73.000000,,2013-04-11 03:02:00,
2013-04-10 20:12:00,53.0,29.0,-100.00,SW,233,8.0,24.0,39,0.00,,,0.02,73.000000,,2013-04-11 03:12:00,
2013-04-10 20:22:00,53.0,29.0,-100.00,SW,233,8.0,24.0,39,0.00,,,0.02,73.000000,,2013-04-11 03:22:00,
2013-04-10 20:53:00,52.0,28.0,-100.00,South,183,3.0,17.0,39,0.00,,,0.02,3.000000,,2013-04-11 03:53:00,
2013-04-10 21:03:00,52.0,28.0,-100.00,South,183,3.0,17.0,39,0.00,,,0.02,3.000000,,2013-04-11 04:03:00,
2013-04-10 21:12:00,52.0,28.0,-100.00,South,183,3.0,17.0,39,0.00,,,0.02,3.000000,,2013-04-11 04:12:00,
2013-04-10 21:22:00,52.0,28.0,-100.00,South,183,3.0,17.0,39,0.00,,,0.02,3.000000,,2013-04-11 04:22:00,
2013-04-10 21:53:00,52.0,28.0,-100.00,WNW,283,3.0,8.0,39,0.00,,,0.02,0.000000,,2013-04-11 04:53:00,
2013-04-10 22:02:00,52.0,28.0,-100.00,WNW,283,3.0,8.0,39,0.00,,,0.02,0.000000,,2013-04-11 05:02:00,
2013-04-10 22:12:00,52.0,28.0,-100.00,WNW,283,3.0,8.0,39,0.00,,,0.02,0.000000,,2013-04-11 05:12:00,
2013-04-10 22:22:00,52.0,28.0,-100.00,WNW,283,3.0,8.0,39,0.00,,,0.02,0.000000,,2013-04-11 05:22:00,
2013-04-10 22:52:00,51.0,28.0,-100.00,WNW,296,11.0,19.0,40,0.00,,,0.02,0.000000,,2013-04-11 05:52:00,
2013-04-10 23:02:00,51.0,28.0,-100.00,WNW,296,11.0,19.0,40,0.00,,,0.02,0.000000,,2013-04-11 06:02:00,
2013-04-10 23:12:00,51.0,28.0,-100.00,WNW,296,11.0,19.0,40,0.00,,,0.02,0.000000,,2013-04-11 06:12:00,
2013-04-10 23:22:00,51.0,28.0,-100.00,WNW,296,11.0,19.0,40,0.00,,,0.02,0.000000,,2013-04-11 06:22:00,
2013-04-10 23:52:00,52.0,28.0,-100.00,WNW,303,8.0,20.0,40,0.00,,,0.02,0.000000,,2013-04-11 06:52:00,